Time;durP1;ratioP1;P1;durP2;ratioP2;P2;SDS_P1;SDS_P2;PMS_P1;PMS_P2;Temp;Humidity;BMP_temperature;BMP_pressure;BME280_temperature;BME280_humidity;BME280_pressure;Samples;Min_cycle;Max_cycle;Signal;HPM_P1;HPM_P2
2023/02/18 00:00:02;;;;;;;;;;;;;;;17.77;60.95;100778.39;2335594;74;50245;-74
2023/02/18 00:03:04;;;;;;;;;;;;;;;17.75;61.02;100795.12;2293676;77;50191;-74
2023/02/18 00:06:12;;;;;;;;;;;;;;;17.74;61.05;100796.14;2312472;76;50609;-74
2023/02/18 00:09:14;;;;;;;;;;;;;;;17.74;61.18;100801.50;2321337;75;51512;-74
2023/02/18 00:12:15;;;;;;;;;;;;;;;17.77;61.17;100794.45;2321141;76;52589;-74
2023/02/18 00:15:17;;;;;;;;;;;;;;;17.71;61.26;100788.47;2335708;76;51216;-74
2023/02/18 00:18:18;;;;;;;;;;;;;;;17.74;61.06;100792.95;2301409;76;50268;-74
2023/02/18 00:21:20;;;;;;;;;;;;;;;17.77;61.00;100793.11;2320931;75;50226;-74
2023/02/18 00:24:21;;;;;;;;;;;;;;;17.76;61.03;100800.83;2321075;75;50208;-74
2023/02/18 00:27:23;;;;;;;;;;;;;;;17.74;61.08;100804.17;2304029;76;49592;-74
2023/02/18 00:30:25;;;;;;;;;;;;;;;17.72;61.25;100811.02;2332726;75;50310;-75
2023/02/18 00:33:26;;;;;;;;;;;;;;;17.75;61.11;100815.20;2328881;75;50627;-74
2023/02/18 00:36:28;;;;;;;;;;;;;;;17.74;61.08;100806.84;2321203;75;50632;-74
2023/02/18 00:39:30;;;;;;;;;;;;;;;17.69;61.38;100817.23;2321341;76;50248;-73
2023/02/18 00:42:31;;;;;;;;;;;;;;;17.78;61.14;100810.35;2321033;75;50612;-74
2023/02/18 00:45:33;;;;;;;;;;;;;;;17.75;61.18;100821.41;2301532;76;52364;-73
2023/02/18 00:48:34;;;;;;;;;;;;;;;17.72;61.36;100817.72;2307896;76;51443;-73
2023/02/18 00:51:36;;;;;;;;;;;;;;;17.71;61.44;100815.23;2321316;76;51665;-74
2023/02/18 00:54:37;;;;;;;;;;;;;;;17.72;61.47;100820.91;2334075;76;53384;-74
2023/02/18 00:57:39;;;;;;;;;;;;;;;17.69;61.55;100828.77;2321345;75;51455;-74
2023/02/18 01:00:41;;;;;;;;;;;;;;;17.69;61.76;100842.66;2321465;76;52099;-74
2023/02/18 01:03:42;;;;;;;;;;;;;;;17.69;61.55;100848.02;2335131;76;51463;-74
2023/02/18 01:06:44;;;;;;;;;;;;;;;17.69;61.50;100830.62;2332606;75;51675;-74
2023/02/18 01:09:46;;;;;;;;;;;;;;;17.69;61.41;100833.30;2332770;75;51445;-72
2023/02/18 01:12:47;;;;;;;;;;;;;;;17.69;61.41;100826.61;2332608;75;51468;-75
2023/02/18 01:15:49;;;;;;;;;;;;;;;17.67;61.40;100828.61;2283249;76;51154;-74
2023/02/18 01:18:50;;;;;;;;;;;;;;;17.68;61.55;100833.80;2319325;75;51552;-74
2023/02/18 01:21:52;;;;;;;;;;;;;;;17.69;61.35;100819.91;2249230;78;52226;-71
2023/02/18 01:24:54;;;;;;;;;;;;;;;17.67;61.60;100824.59;2273400;76;51516;-74
2023/02/18 01:27:55;;;;;;;;;;;;;;;17.67;61.69;100827.27;2309102;75;51670;-74
2023/02/18 01:30:57;;;;;;;;;;;;;;;17.68;61.41;100824.95;2321424;75;49927;-74
2023/02/18 01:33:58;;;;;;;;;;;;;;;17.67;61.80;100840.14;2334384;75;50080;-73
2023/02/18 01:37:00;;;;;;;;;;;;;;;17.67;61.59;100827.27;2322883;75;50376;-74
2023/02/18 01:40:02;;;;;;;;;;;;;;;17.70;61.53;100824.25;2321399;76;50746;-74
2023/02/18 01:43:03;;;;;;;;;;;;;;;17.68;61.30;100828.45;2321001;75;50388;-73
2023/02/18 01:46:06;;;;;;;;;;;;;;;17.64;61.33;100829.28;2315388;76;50614;-74
2023/02/18 01:49:07;;;;;;;;;;;;;;;17.65;61.38;100819.44;2315885;75;50769;-73
2023/02/18 01:52:11;;;;;;;;;;;;;;;17.63;61.54;100823.61;2326905;75;52399;-74
2023/02/18 01:55:12;;;;;;;;;;;;;;;17.67;61.40;100820.58;2321375;76;50276;-72
2023/02/18 01:58:14;;;;;;;;;;;;;;;17.66;61.36;100830.97;2321402;75;50405;-73
2023/02/18 02:01:15;;;;;;;;;;;;;;;17.66;61.44;100830.97;2321423;76;50395;-73
2023/02/18 02:04:17;;;;;;;;;;;;;;;17.68;61.86;100829.79;2335104;76;49433;-72
2023/02/18 02:07:19;;;;;;;;;;;;;;;17.67;62.03;100821.41;2321491;75;51529;-73
2023/02/18 02:10:21;;;;;;;;;;;;;;;17.69;61.84;100830.62;2321431;75;51472;-72
2023/02/18 02:13:30;;;;;;;;;;;;;;;17.67;61.93;100822.75;2335321;75;50615;-72
2023/02/18 02:16:36;;;;;;;;;;;;;;;17.70;61.74;100822.91;2310027;76;51466;-72
2023/02/18 02:19:39;;;;;;;;;;;;;;;17.68;61.85;100815.58;2319959;76;50265;-72
2023/02/18 02:22:48;;;;;;;;;;;;;;;17.68;61.76;100827.11;2321173;76;50238;-72
2023/02/18 02:26:00;;;;;;;;;;;;;;;17.71;61.63;100834.80;2321318;76;50472;-72
2023/02/18 02:29:19;;;;;;;;;;;;;;;17.69;61.57;100835.46;2308979;76;52350;-72
2023/02/18 02:32:22;;;;;;;;;;;;;;;17.70;61.55;100839.83;2321025;76;50822;-72
2023/02/18 02:35:31;;;;;;;;;;;;;;;17.69;61.75;100835.97;2316017;76;51589;-72
2023/02/18 02:38:50;;;;;;;;;;;;;;;17.66;61.92;100826.95;2321344;75;50229;-72
2023/02/18 02:42:05;;;;;;;;;;;;;;;17.66;61.61;100837.15;2308813;76;51202;-72
2023/02/18 02:45:08;;;;;;;;;;;;;;;17.65;61.59;100827.47;2320962;76;51556;-73
2023/02/18 02:48:27;;;;;;;;;;;;;;;17.63;61.82;100820.94;2302378;76;51392;-73
2023/02/18 02:51:32;;;;;;;;;;;;;;;17.62;62.02;100833.14;2285688;76;50721;-73
2023/02/18 02:54:34;;;;;;;;;;;;;;;17.63;61.93;100835.66;2265627;77;49337;-73
2023/02/18 02:57:49;;;;;;;;;;;;;;;17.66;61.62;100837.66;2313731;75;50353;-73
2023/02/18 03:01:05;;;;;;;;;;;;;;;17.68;61.61;100839.16;2321439;75;51524;-73
2023/02/18 03:04:08;;;;;;;;;;;;;;;17.69;61.65;100836.80;2321202;75;50411;-73
2023/02/18 03:07:29;;;;;;;;;;;;;;;17.69;61.56;100854.20;2308743;76;51249;-73
2023/02/18 03:10:49;;;;;;;;;;;;;;;17.69;61.53;100846.67;2321627;76;51308;-72
2023/02/18 03:13:52;;;;;;;;;;;;;;;17.68;61.54;100841.83;2321338;76;51403;-72
2023/02/18 03:17:01;;;;;;;;;;;;;;;17.68;61.67;100845.02;2321562;76;51423;-72
2023/02/18 03:20:05;;;;;;;;;;;;;;;17.69;61.51;100835.97;2308868;76;52585;-73
2023/02/18 03:23:07;;;;;;;;;;;;;;;17.68;61.73;100837.81;2321314;76;51565;-72
2023/02/18 03:26:09;;;;;;;;;;;;;;;17.66;61.62;100835.81;2321543;76;50330;-72
2023/02/18 03:29:10;;;;;;;;;;;;;;;17.67;61.43;100835.30;2321424;75;50765;-72
2023/02/18 03:32:12;;;;;;;;;;;;;;;17.68;61.30;100836.99;2321478;76;50638;-73
2023/02/18 03:35:15;;;;;;;;;;;;;;;17.67;61.33;100837.47;2321450;76;50134;-74
2023/02/18 03:38:31;;;;;;;;;;;;;;;17.62;61.39;100834.00;2335667;75;51562;-72
2023/02/18 03:41:32;;;;;;;;;;;;;;;17.63;61.69;100838.33;2321500;76;50342;-72
2023/02/18 03:44:34;;;;;;;;;;;;;;;17.63;61.22;100836.99;2335393;76;51143;-72
2023/02/18 03:47:36;;;;;;;;;;;;;;;17.63;61.54;100830.30;2319771;75;50210;-72
2023/02/18 03:50:38;;;;;;;;;;;;;;;17.59;61.08;100835.66;2319116;76;51613;-72
2023/02/18 03:53:39;;;;;;;;;;;;;;;17.59;61.21;100836.99;2321052;76;50229;-73
2023/02/18 03:56:41;;;;;;;;;;;;;;;17.58;61.23;100832.66;2321273;76;50899;-72
2023/02/18 03:59:43;;;;;;;;;;;;;;;17.58;61.25;100842.53;2321141;76;50629;-72
2023/02/18 04:02:45;;;;;;;;;;;;;;;17.59;61.13;100836.16;2320972;76;50674;-71
2023/02/18 04:05:47;;;;;;;;;;;;;;;17.61;60.99;100834.16;2330980;75;50058;-72
2023/02/18 04:08:48;;;;;;;;;;;;;;;17.62;61.22;100841.16;2308894;76;52453;-73
2023/02/18 04:11:50;;;;;;;;;;;;;;;17.63;61.17;100840.17;2335523;76;51518;-72
2023/02/18 04:14:51;;;;;;;;;;;;;;;17.62;61.06;100834.00;2335283;75;51398;-71
2023/02/18 04:17:53;;;;;;;;;;;;;;;17.64;61.09;100842.66;2319507;76;50364;-74
2023/02/18 04:20:55;;;;;;;;;;;;;;;17.63;61.23;100842.34;2284945;76;49247;-73
2023/02/18 04:23:56;;;;;;;;;;;;;;;17.64;61.24;100848.02;2319034;76;50469;-72
2023/02/18 04:26:58;;;;;;;;;;;;;;;17.64;61.52;100848.02;2319160;76;50758;-72
2023/02/18 04:29:59;;;;;;;;;;;;;;;17.63;61.64;100846.36;2319128;76;51298;-72
2023/02/18 04:33:01;;;;;;;;;;;;;;;17.65;61.38;100851.55;2328080;75;51472;-74
2023/02/18 04:36:02;;;;;;;;;;;;;;;17.63;61.34;100859.73;2325653;75;51431;-74
2023/02/18 04:39:04;;;;;;;;;;;;;;;17.64;61.27;100854.70;2332278;75;50440;-75
2023/02/18 04:42:07;;;;;;;;;;;;;;;17.63;61.25;100865.09;2324343;75;50653;-75
2023/02/18 04:45:09;;;;;;;;;;;;;;;17.63;61.31;100866.42;2285946;77;52410;-74
2023/02/18 04:48:11;;;;;;;;;;;;;;;17.63;61.35;100862.92;2289161;76;50780;-74
2023/02/18 04:51:12;;;;;;;;;;;;;;;17.62;61.37;100862.09;2320131;76;50255;-74
2023/02/18 04:54:14;;;;;;;;;;;;;;;17.62;61.15;100868.78;2320733;75;50430;-74
2023/02/18 04:57:15;;;;;;;;;;;;;;;17.61;60.96;100869.77;2309069;76;51652;-75
2023/02/18 05:00:17;;;;;;;;;;;;;;;17.60;61.12;100868.11;2335655;74;50394;-73
2023/02/18 05:03:19;;;;;;;;;;;;;;;17.57;61.06;100860.44;2320922;76;51547;-74
2023/02/18 05:06:20;;;;;;;;;;;;;;;17.59;61.26;100867.76;2320960;75;51505;-74
2023/02/18 05:09:22;;;;;;;;;;;;;;;17.58;61.18;100871.45;2308881;76;52022;-74
2023/02/18 05:12:24;;;;;;;;;;;;;;;17.59;61.27;100864.26;2338224;75;51508;-73
2023/02/18 05:15:25;;;;;;;;;;;;;;;17.58;61.41;100878.66;2327460;76;51446;-73
2023/02/18 05:18:27;;;;;;;;;;;;;;;17.62;61.38;100871.45;2301518;76;50259;-73
2023/02/18 05:21:29;;;;;;;;;;;;;;;17.64;61.04;100864.06;2321248;76;53883;-73
2023/02/18 05:24:30;;;;;;;;;;;;;;;17.67;61.11;100875.45;2294894;76;51170;-73
2023/02/18 05:27:32;;;;;;;;;;;;;;;17.66;61.19;100869.27;2334880;75;50242;-73
2023/02/18 05:30:33;;;;;;;;;;;;;;;17.66;61.20;100867.09;2290593;76;50178;-71
2023/02/18 05:33:35;;;;;;;;;;;;;;;17.67;61.61;100864.73;2273860;77;50627;-71
2023/02/18 05:36:36;;;;;;;;;;;;;;;17.68;61.78;100857.06;2303086;76;50754;-72
2023/02/18 05:39:38;;;;;;;;;;;;;;;17.67;61.75;100857.54;2321036;75;51471;-72
2023/02/18 05:42:40;;;;;;;;;;;;;;;17.68;61.39;100861.08;2316531;76;51421;-73
2023/02/18 05:45:41;;;;;;;;;;;;;;;17.66;61.10;100853.20;2304789;76;52223;-72
2023/02/18 05:48:43;;;;;;;;;;;;;;;17.66;60.91;100852.38;2316975;76;50239;-72
2023/02/18 05:51:44;;;;;;;;;;;;;;;17.64;60.49;100841.83;2321308;76;50372;-73
2023/02/18 05:54:46;;;;;;;;;;;;;;;17.64;60.41;100842.66;2321216;76;50718;-72
2023/02/18 05:57:47;;;;;;;;;;;;;;;17.62;60.99;100839.34;2309853;76;51722;-73
2023/02/18 06:00:49;;;;;;;;;;;;;;;17.60;60.68;100852.06;2336803;75;51818;-72
2023/02/18 06:03:51;;;;;;;;;;;;;;;17.59;60.72;100844.19;2336707;75;51717;-72
2023/02/18 06:06:53;;;;;;;;;;;;;;;17.59;60.58;100854.89;2336604;75;53640;-73
2023/02/18 06:09:55;;;;;;;;;;;;;;;17.58;60.52;100853.23;2284918;77;49968;-73
2023/02/18 06:12:56;;;;;;;;;;;;;;;17.58;60.50;100855.41;2297540;77;51538;-73
2023/02/18 06:15:58;;;;;;;;;;;;;;;17.58;60.52;100860.75;2312891;76;50623;-73
2023/02/18 06:18:59;;;;;;;;;;;;;;;17.57;60.46;100856.90;2322347;75;51422;-73
2023/02/18 06:22:01;;;;;;;;;;;;;;;17.58;60.42;100860.75;2263919;76;51693;-73
2023/02/18 06:25:03;;;;;;;;;;;;;;;17.57;60.45;100847.05;2314484;76;50719;-73
2023/02/18 06:28:04;;;;;;;;;;;;;;;17.57;60.42;100851.07;2322175;75;50811;-73
2023/02/18 06:31:06;;;;;;;;;;;;;;;17.57;60.39;100854.22;2302423;76;50306;-73
2023/02/18 06:34:08;;;;;;;;;;;;;;;17.56;60.32;100858.75;2310442;75;50131;-73
2023/02/18 06:37:09;;;;;;;;;;;;;;;17.56;60.33;100852.56;2336858;75;50778;-73
2023/02/18 06:40:11;;;;;;;;;;;;;;;17.54;60.30;100858.08;2322781;75;50703;-75
2023/02/18 06:43:12;;;;;;;;;;;;;;;17.55;60.33;100851.73;2322322;76;50286;-73
2023/02/18 06:46:14;;;;;;;;;;;;;;;17.58;60.41;100846.04;2313706;75;50609;-73
2023/02/18 06:49:15;;;;;;;;;;;;;;;17.64;60.42;100853.87;2303865;76;51272;-73
2023/02/18 06:52:17;;;;;;;;;;;;;;;17.69;60.25;100842.66;2308910;75;50611;-74
2023/02/18 06:55:19;;;;;;;;;;;;;;;17.67;60.01;100832.63;2322677;75;51337;-74
2023/02/18 06:58:22;;;;;;;;;;;;;;;17.64;60.14;100838.65;2310637;75;52537;-74
2023/02/18 07:01:23;;;;;;;;;;;;;;;17.64;60.02;100836.48;2338796;76;50677;-73
2023/02/18 07:04:25;;;;;;;;;;;;;;;17.62;60.28;100839.34;2324292;76;49942;-73
2023/02/18 07:07:26;;;;;;;;;;;;;;;17.60;60.13;100841.35;2331679;75;50641;-72
2023/02/18 07:10:28;;;;;;;;;;;;;;;17.61;60.08;100839.00;2301011;76;52577;-73
2023/02/18 07:13:30;;;;;;;;;;;;;;;17.60;60.05;100825.81;2323892;75;51362;-73
2023/02/18 07:16:31;;;;;;;;;;;;;;;17.61;60.09;100834.16;2314152;75;50746;-73
2023/02/18 07:19:33;;;;;;;;;;;;;;;17.59;60.04;100821.45;2322393;76;51456;-72
2023/02/18 07:22:34;;;;;;;;;;;;;;;17.60;60.20;100823.13;2298174;76;50064;-73
2023/02/18 07:25:36;;;;;;;;;;;;;;;17.59;60.12;100830.30;2308122;75;50743;-73
2023/02/18 07:28:38;;;;;;;;;;;;;;;17.59;60.20;100826.80;2323658;75;51431;-74
2023/02/18 07:31:39;;;;;;;;;;;;;;;17.59;59.99;100818.27;2314647;76;50625;-73
2023/02/18 07:34:41;;;;;;;;;;;;;;;17.54;60.13;100809.91;2336837;76;50042;-72
2023/02/18 07:37:46;;;;;;;;;;;;;;;17.57;59.96;100810.94;2330159;75;50725;-73
2023/02/18 07:40:48;;;;;;;;;;;;;;;17.56;60.00;100813.77;2334365;75;50701;-73
2023/02/18 07:43:49;;;;;;;;;;;;;;;17.55;59.91;100812.94;2345261;75;51543;-73
2023/02/18 07:46:52;;;;;;;;;;;;;;;17.56;59.85;100807.91;2311503;76;50061;-70
2023/02/18 07:49:53;;;;;;;;;;;;;;;17.54;59.95;100797.88;2310124;76;50548;-71
2023/02/18 07:52:55;;;;;;;;;;;;;;;17.56;60.09;100799.88;2306500;76;50264;-71
2023/02/18 07:55:59;;;;;;;;;;;;;;;17.54;60.16;100792.52;2345276;74;50159;-71
2023/02/18 07:59:00;;;;;;;;;;;;;;;17.64;59.91;100788.31;2316056;76;49338;-71
2023/02/18 08:02:02;;;;;;;;;;;;;;;17.63;59.93;100793.35;2307537;76;50827;-71
2023/02/18 08:05:04;;;;;;;;;;;;;;;17.64;59.95;100789.14;2296081;76;51509;-73
2023/02/18 08:08:06;;;;;;;;;;;;;;;17.59;59.00;100788.83;2327909;74;51437;-72
2023/02/18 08:11:07;;;;;;;;;;;;;;;17.54;58.99;100789.85;2317158;75;52603;-73
2023/02/18 08:14:09;;;;;;;;;;;;;;;17.53;59.06;100778.83;2343554;74;51414;-73
2023/02/18 08:17:10;;;;;;;;;;;;;;;17.51;59.29;100779.50;2295540;76;51453;-71
2023/02/18 08:20:12;;;;;;;;;;;;;;;17.50;59.91;100775.68;2325148;75;51486;-71
2023/02/18 08:23:14;;;;;;;;;;;;;;;17.51;60.24;100769.31;2298835;76;52619;-71
2023/02/18 08:26:15;;;;;;;;;;;;;;;17.54;60.38;100768.95;2325030;75;52356;-71
2023/02/18 08:29:17;;;;;;;;;;;;;;;17.57;60.63;100760.09;2314353;75;50394;-71
2023/02/18 08:32:18;;;;;;;;;;;;;;;17.69;59.96;100749.00;2320181;76;50026;-70
2023/02/18 08:35:20;;;;;;;;;;;;;;;17.75;59.87;100750.97;2309645;75;51476;-71
2023/02/18 08:38:22;;;;;;;;;;;;;;;17.84;59.50;100745.94;2328116;74;51438;-70
2023/02/18 08:41:23;;;;;;;;;;;;;;;17.81;59.63;100741.77;2289723;76;50730;-70
2023/02/18 08:44:25;;;;;;;;;;;;;;;17.78;59.72;100745.28;2250770;78;52464;-70
2023/02/18 08:47:27;;;;;;;;;;;;;;;17.76;59.81;100739.27;2298730;76;51264;-70
2023/02/18 08:50:28;;;;;;;;;;;;;;;17.68;60.35;100736.64;2334177;75;50678;-71
2023/02/18 08:53:30;;;;;;;;;;;;;;;17.66;60.28;100732.79;2321167;75;52723;-70
2023/02/18 08:56:32;;;;;;;;;;;;;;;17.62;60.53;100733.66;2321302;75;51461;-70
2023/02/18 08:59:33;;;;;;;;;;;;;;;17.61;60.60;100741.33;2282502;76;49921;-71
2023/02/18 09:02:35;;;;;;;;;;;;;;;17.61;60.42;100731.97;2270529;78;50760;-70
2023/02/18 09:05:38;;;;;;;;;;;;;;;17.60;60.38;100724.97;2303814;75;51453;-71
2023/02/18 09:08:40;;;;;;;;;;;;;;;17.60;60.46;100718.78;2312164;76;50331;-70
2023/02/18 09:11:41;;;;;;;;;;;;;;;17.59;60.45;100716.59;2292531;76;50862;-70
2023/02/18 09:14:43;;;;;;;;;;;;;;;17.59;60.55;100705.89;2302699;76;50762;-70
2023/02/18 09:17:45;;;;;;;;;;;;;;;17.57;61.23;100697.23;2307839;76;50378;-71
2023/02/18 09:20:46;;;;;;;;;;;;;;;17.55;61.28;100692.55;2295360;76;51554;-70
2023/02/18 09:23:48;;;;;;;;;;;;;;;17.53;61.07;100682.52;2287969;76;50094;-70
2023/02/18 09:26:50;;;;;;;;;;;;;;;17.54;60.99;100680.67;2294818;76;51497;-71
2023/02/18 09:29:51;;;;;;;;;;;;;;;17.54;61.25;100681.50;2300003;76;50663;-70
2023/02/18 09:32:53;;;;;;;;;;;;;;;17.57;61.08;100673.63;2297247;75;51598;-72
2023/02/18 09:35:55;;;;;;;;;;;;;;;17.56;61.17;100663.44;2250913;78;52385;-73
2023/02/18 09:38:56;;;;;;;;;;;;;;;17.69;60.68;100666.88;2281699;76;50320;-73
2023/02/18 09:41:59;;;;;;;;;;;;;;;17.72;60.32;100657.66;2320681;76;51498;-72
2023/02/18 09:45:02;;;;;;;;;;;;;;;17.74;60.31;100667.69;2321007;76;50789;-72
2023/02/18 09:48:03;;;;;;;;;;;;;;;17.81;60.10;100637.39;2276633;77;51577;-73
2023/02/18 09:51:05;;;;;;;;;;;;;;;17.77;60.32;100632.53;2286814;75;51424;-72
2023/02/18 09:54:08;;;;;;;;;;;;;;;17.73;60.53;100633.41;2292197;76;51430;-72
2023/02/18 09:57:11;;;;;;;;;;;;;;;17.70;60.61;100616.37;2317050;76;51406;-72
2023/02/18 10:00:14;;;;;;;;;;;;;;;17.63;60.86;100607.39;2283704;75;52363;-73
2023/02/18 10:03:19;;;;;;;;;;;;;;;17.60;60.93;100599.20;2315805;75;51770;-73
2023/02/18 10:06:29;;;;;;;;;;;;;;;17.58;60.95;100587.02;2309684;75;50238;-72
2023/02/18 10:09:37;;;;;;;;;;;;;;;17.58;61.22;100587.84;2308522;75;51513;-72
2023/02/18 10:12:39;;;;;;;;;;;;;;;17.64;60.86;100588.46;2302442;76;51555;-73
2023/02/18 10:15:42;;;;;;;;;;;;;;;17.73;60.61;100579.06;2303544;76;51496;-73
2023/02/18 10:18:44;;;;;;;;;;;;;;;17.68;60.86;100583.60;2297096;76;49970;-73
2023/02/18 10:21:46;;;;;;;;;;;;;;;17.65;60.76;100582.63;2297378;76;51493;-73
2023/02/18 10:24:49;;;;;;;;;;;;;;;17.60;61.18;100573.80;2292343;76;52360;-73
2023/02/18 10:27:51;;;;;;;;;;;;;;;17.60;61.13;100564.94;2323712;76;50619;-73
2023/02/18 10:30:57;;;;;;;;;;;;;;;17.57;61.20;100539.38;2321426;76;50396;-73
2023/02/18 10:34:00;;;;;;;;;;;;;;;17.56;61.16;100526.98;2312851;76;50368;-73
2023/02/18 10:37:03;;;;;;;;;;;;;;;17.55;61.21;100521.32;2286428;76;52535;-73
2023/02/18 10:40:12;;;;;;;;;;;;;;;17.57;61.13;100508.61;2292876;76;51464;-73
2023/02/18 10:43:18;;;;;;;;;;;;;;;17.59;61.01;100500.38;2318938;76;51338;-73
2023/02/18 10:46:24;;;;;;;;;;;;;;;17.63;60.68;100488.32;2298517;76;51358;-73
2023/02/18 10:49:43;;;;;;;;;;;;;;;17.66;60.53;100465.20;2318529;75;51532;-74
2023/02/18 10:52:45;;;;;;;;;;;;;;;17.66;60.57;100461.20;2295840;76;51600;-73
2023/02/18 10:55:53;;;;;;;;;;;;;;;17.67;60.46;100453.99;2321335;76;50780;-73
2023/02/18 10:58:53;;;;;;;;;;;;;;;17.66;60.67;100445.66;2314817;76;22335;-74
2023/02/18 11:02:00;;;;;;;;;;;;;;;17.62;60.53;100440.67;2310459;76;22364;-73
2023/02/18 11:05:03;;;;;;;;;;;;;;;17.59;60.71;100427.63;2305792;75;51540;-73
2023/02/18 11:08:10;;;;;;;;;;;;;;;17.57;60.88;100417.64;2318504;76;49482;-72
2023/02/18 11:11:16;;;;;;;;;;;;;;;17.57;60.97;100410.10;2310281;76;50664;-73
2023/02/18 11:14:19;;;;;;;;;;;;;;;17.55;61.08;100390.23;2294844;76;52436;-73
2023/02/18 11:17:22;;;;;;;;;;;;;;;17.56;61.13;100371.00;2304261;75;50613;-73
2023/02/18 11:20:34;;;;;;;;;;;;;;;17.62;60.65;100361.74;2298529;75;51589;-74
2023/02/18 11:23:37;;;;;;;;;;;;;;;17.67;60.36;100350.98;2320092;75;51429;-72
2023/02/18 11:26:38;;;;;;;;;;;;;;;17.78;59.94;100350.54;2310038;76;52355;-73
2023/02/18 11:29:40;;;;;;;;;;;;;;;17.79;59.88;100336.13;2322232;75;51476;-75
2023/02/18 11:32:41;;;;;;;;;;;;;;;17.72;60.35;100328.00;2283735;78;50631;-72
2023/02/18 11:35:53;;;;;;;;;;;;;;;17.75;60.18;100321.45;2282843;78;50434;-72
2023/02/18 11:38:55;;;;;;;;;;;;;;;17.63;60.99;100321.92;2285294;76;50305;-73
2023/02/18 11:42:06;;;;;;;;;;;;;;;17.61;61.19;100315.09;2332451;75;51530;-71
2023/02/18 11:45:09;;;;;;;;;;;;;;;17.59;61.49;100307.75;2311400;76;51490;-71
2023/02/18 11:48:15;;;;;;;;;;;;;;;17.57;61.39;100301.75;2306381;76;51681;-73
2023/02/18 11:51:18;;;;;;;;;;;;;;;17.57;61.41;100275.00;2320926;76;51258;-72
2023/02/18 11:54:22;;;;;;;;;;;;;;;17.63;60.85;100274.28;2280839;76;50308;-73
2023/02/18 11:57:25;;;;;;;;;;;;;;;17.67;60.65;100258.67;2293727;76;50242;-72
2023/02/18 12:00:42;;;;;;;;;;;;;;;17.73;60.50;100256.60;2300474;76;51521;-74
2023/02/18 12:03:52;;;;;;;;;;;;;;;17.75;60.37;100246.52;2329609;76;49611;-73
2023/02/18 12:07:07;;;;;;;;;;;;;;;17.74;60.39;100241.69;2320877;76;51442;-74
2023/02/18 12:10:13;;;;;;;;;;;;;;;17.73;60.38;100228.51;2317759;75;51507;-74
2023/02/18 12:13:25;;;;;;;;;;;;;;;17.72;60.39;100216.13;2320890;75;50692;-73
2023/02/18 12:16:35;;;;;;;;;;;;;;;17.71;60.69;100210.47;2287823;76;49573;-73
2023/02/18 12:19:38;;;;;;;;;;;;;;;17.66;60.77;100208.86;2272719;76;51479;-73
2023/02/18 12:22:41;;;;;;;;;;;;;;;17.62;61.02;100195.02;2320634;76;51485;-74
2023/02/18 12:25:48;;;;;;;;;;;;;;;17.62;61.02;100191.85;2320926;75;50328;-73
2023/02/18 12:29:00;;;;;;;;;;;;;;;17.68;61.05;100191.61;2319578;75;51509;-73
2023/02/18 12:32:13;;;;;;;;;;;;;;;17.75;60.70;100183.63;2278416;76;52375;-73
2023/02/18 12:35:19;;;;;;;;;;;;;;;17.80;60.78;100179.91;2308011;75;50403;-74
2023/02/18 12:38:40;;;;;;;;;;;;;;;17.79;61.44;100180.91;2295503;75;50300;-72
2023/02/18 12:41:44;;;;;;;;;;;;;;;17.79;61.04;100173.73;2296669;75;51620;-73
2023/02/18 12:44:50;;;;;;;;;;;;;;;17.80;60.96;100167.39;2292594;75;52556;-73
2023/02/18 12:48:10;;;;;;;;;;;;;;;17.76;61.70;100161.23;2279469;76;50516;-72
2023/02/18 12:51:16;;;;;;;;;;;;;;;17.83;60.76;100154.14;2314762;75;50248;-73
2023/02/18 12:54:19;;;;;;;;;;;;;;;17.75;61.46;100149.70;2281512;76;51496;-73
2023/02/18 12:57:34;;;;;;;;;;;;;;;17.71;61.71;100139.56;2248915;77;52427;-73
2023/02/18 13:00:54;;;;;;;;;;;;;;;17.69;61.91;100137.58;2297736;76;50766;-74
2023/02/18 13:03:57;;;;;;;;;;;;;;;17.80;61.13;100135.76;2321075;75;50691;-72
2023/02/18 13:07:06;;;;;;;;;;;;;;;17.80;61.07;100135.27;2277071;76;50254;-72
2023/02/18 13:10:26;;;;;;;;;;;;;;;17.89;60.79;100126.59;2321097;76;51506;-72
2023/02/18 13:13:38;;;;;;;;;;;;;;;17.94;60.78;100110.80;2310332;76;51515;-72
2023/02/18 13:16:41;;;;;;;;;;;;;;;17.92;61.18;100115.50;2308877;76;51615;-71
2023/02/18 13:19:56;;;;;;;;;;;;;;;17.91;61.03;100096.46;2319120;76;50677;-71
2023/02/18 13:22:58;;;;;;;;;;;;;;;17.94;60.91;100088.05;2308966;76;51173;-73
2023/02/18 13:26:03;;;;;;;;;;;;;;;17.86;61.43;100088.18;2335610;76;50380;-71
2023/02/18 13:29:06;;;;;;;;;;;;;;;17.82;61.87;100088.23;2321148;75;50818;-73
2023/02/18 13:32:13;;;;;;;;;;;;;;;17.81;61.99;100086.59;2320578;76;50339;-75
2023/02/18 13:35:33;;;;;;;;;;;;;;;17.78;61.85;100082.94;2309077;76;52567;-72
2023/02/18 13:38:50;;;;;;;;;;;;;;;17.80;61.61;100084.43;2321421;75;51571;-73
2023/02/18 13:41:51;;;;;;;;;;;;;;;17.86;61.64;100096.73;2315444;76;50373;-72
2023/02/18 13:44:57;;;;;;;;;;;;;;;17.82;61.65;100094.92;2316804;75;50374;-71
2023/02/18 13:47:59;;;;;;;;;;;;;;;17.87;61.70;100099.70;2299849;75;50125;-71
2023/02/18 13:51:03;;;;;;;;;;;;;;;17.83;61.57;100097.94;2321312;76;50293;-71
2023/02/18 13:54:16;;;;;;;;;;;;;;;17.82;61.49;100091.73;2293606;76;50752;-72
2023/02/18 13:57:20;;;;;;;;;;;;;;;17.77;61.49;100085.27;2297372;75;50370;-73
2023/02/18 14:00:23;;;;;;;;;;;;;;;17.75;61.50;100098.01;2291827;76;52413;-73
2023/02/18 14:03:45;;;;;;;;;;;;;;;17.71;61.79;100090.06;2297902;76;50701;-73
2023/02/18 14:07:05;;;;;;;;;;;;;;;17.69;61.87;100091.58;2301018;76;50435;-72
2023/02/18 14:10:08;;;;;;;;;;;;;;;17.65;62.07;100093.00;2289429;76;51516;-73
2023/02/18 14:13:20;;;;;;;;;;;;;;;17.72;61.78;100078.33;2258035;76;52540;-73
2023/02/18 14:16:21;;;;;;;;;;;;;;;17.87;61.37;100077.78;2310822;76;50319;-73
2023/02/18 14:19:29;;;;;;;;;;;;;;;17.98;61.19;100079.95;2310983;75;50329;-73
2023/02/18 14:22:32;;;;;;;;;;;;;;;18.04;61.00;100077.84;2295922;76;51576;-74
2023/02/18 14:25:39;;;;;;;;;;;;;;;18.04;60.95;100093.90;2321012;75;51520;-72
2023/02/18 14:28:44;;;;;;;;;;;;;;;18.06;60.92;100089.19;2321747;76;51381;-72
2023/02/18 14:31:54;;;;;;;;;;;;;;;18.04;60.91;100089.06;2321393;76;50674;-72
2023/02/18 14:35:03;;;;;;;;;;;;;;;18.04;60.88;100077.84;2304594;76;51359;-71
2023/02/18 14:38:21;;;;;;;;;;;;;;;17.99;61.00;100084.28;2287192;75;50298;-72
2023/02/18 14:41:40;;;;;;;;;;;;;;;17.93;61.05;100083.72;2283626;75;51486;-71
2023/02/18 14:44:59;;;;;;;;;;;;;;;17.83;61.25;100079.20;2335063;75;50511;-73
2023/02/18 14:48:03;;;;;;;;;;;;;;;17.80;61.36;100075.06;2295957;75;50776;-73
2023/02/18 14:51:04;;;;;;;;;;;;;;;17.98;61.03;100078.62;2308918;76;50300;-74
2023/02/18 14:54:06;;;;;;;;;;;;;;;18.05;60.91;100083.50;2320971;75;51486;-73
2023/02/18 14:57:09;;;;;;;;;;;;;;;18.12;60.75;100090.26;2320521;75;51568;-74
2023/02/18 15:00:15;;;;;;;;;;;;;;;18.20;60.51;100094.64;2294978;75;50299;-73
2023/02/18 15:03:18;;;;;;;;;;;;;;;18.24;60.36;100099.42;2274377;78;50359;-73
2023/02/18 15:06:35;;;;;;;;;;;;;;;18.24;60.34;100107.45;2299337;76;50732;-72
2023/02/18 15:09:38;;;;;;;;;;;;;;;18.19;60.43;100107.21;2317842;74;51599;-73
2023/02/18 15:12:40;;;;;;;;;;;;;;;18.20;60.47;100105.36;2309372;74;51433;-73
2023/02/18 15:15:42;;;;;;;;;;;;;;;18.05;61.67;100115.63;2303388;75;51485;-74
2023/02/18 15:18:44;;;;;;;;;;;;;;;18.03;61.63;100105.64;2311367;75;50763;-74
2023/02/18 15:21:47;;;;;;;;;;;;;;;17.99;62.06;100098.18;2317359;76;51718;-75
2023/02/18 15:24:49;;;;;;;;;;;;;;;18.00;62.06;100115.37;2287362;76;51557;-74
2023/02/18 15:27:51;;;;;;;;;;;;;;;18.03;62.11;100118.17;2318956;75;51344;-74
2023/02/18 15:30:52;;;;;;;;;;;;;;;18.17;61.66;100116.45;2303706;76;50030;-73
2023/02/18 15:33:54;;;;;;;;;;;;;;;18.25;61.65;100116.31;2299910;76;50240;-74
2023/02/18 15:36:56;;;;;;;;;;;;;;;18.19;61.81;100128.63;2318413;76;50250;-74
2023/02/18 15:39:57;;;;;;;;;;;;;;;18.16;62.01;100125.01;2318835;75;49653;-75
2023/02/18 15:42:59;;;;;;;;;;;;;;;18.11;61.91;100138.63;2321138;76;50402;-76